createdAt,value
2023-02-27T00:04:12.391Z,14.80
2023-02-27T00:20:39.107Z,6.50
2023-02-27T00:40:31.573Z,9.90
2023-02-27T00:59:50.597Z,15.90
2023-02-27T01:05:22.651Z,10.10
2023-02-27T01:10:26.600Z,10.30
2023-02-27T01:15:30.196Z,6.30
2023-02-27T01:21:56.147Z,10.60
2023-02-27T01:48:42.111Z,16.20
2023-02-27T02:12:45.676Z,12.50
2023-02-27T02:18:30.560Z,10.70
2023-02-27T02:31:43.880Z,9.10
2023-02-27T02:44:26.058Z,10.60
2023-02-27T02:58:58.501Z,12.30
2023-02-27T03:10:31.076Z,12.30
2023-02-27T03:16:53.740Z,24.00
2023-02-27T03:22:07.657Z,14.00
2023-02-27T03:27:13.419Z,17.00
2023-02-27T03:33:01.822Z,60.30
2023-02-27T03:38:40.785Z,103.70
2023-02-27T03:44:03.637Z,91.80
2023-02-27T03:50:38.815Z,38.10
2023-02-27T03:55:46.945Z,30.70
2023-02-27T04:09:10.479Z,22.90
2023-02-27T04:14:35.808Z,15.00
2023-02-27T04:20:16.698Z,8.90
2023-02-27T04:25:50.320Z,10.40
2023-02-27T04:38:50.629Z,11.80
2023-02-27T04:43:55.690Z,12.50
2023-02-27T04:49:12.820Z,9.60
2023-02-27T04:54:28.245Z,9.90
2023-02-27T05:01:12.116Z,22.50
2023-02-27T05:22:34.217Z,25.00
2023-02-27T05:28:33.690Z,41.10
2023-02-27T05:42:12.699Z,33.70
2023-02-27T06:15:32.946Z,59.90
2023-02-27T06:21:01.843Z,53.90
2023-02-27T06:26:33.736Z,27.60
2023-02-27T06:31:37.152Z,13.10
2023-02-27T06:36:49.857Z,85.50
2023-02-27T06:41:53.484Z,68.50
2023-02-27T06:47:00.168Z,96.00
2023-02-27T06:52:03.895Z,44.60
2023-02-27T06:57:07.726Z,13.10
2023-02-27T07:09:15.516Z,12.10
2023-02-27T07:14:19.031Z,21.80
2023-02-27T07:19:24.583Z,34.20
2023-02-27T07:25:19.728Z,67.40
2023-02-27T07:30:23.473Z,45.70
2023-02-27T07:35:27.220Z,42.20
2023-02-27T07:40:30.909Z,43.60
2023-02-27T08:03:59.555Z,48.90
2023-02-27T08:10:46.202Z,44.80
2023-02-27T08:17:32.413Z,15.00
2023-02-27T08:23:52.398Z,66.80
2023-02-27T08:36:53.813Z,9.90
2023-02-27T08:41:57.470Z,30.50
2023-02-27T08:48:17.648Z,12.60
2023-02-27T08:53:21.220Z,9.20
2023-02-27T08:59:10.377Z,7.30
2023-02-27T09:11:19.355Z,10.70
2023-02-27T09:30:45.048Z,5.70
2023-02-27T09:40:32.079Z,17.20
2023-02-27T09:45:39.725Z,18.90
2023-02-27T09:50:48.063Z,9.00
2023-02-27T09:56:47.870Z,9.20
2023-02-27T10:02:25.393Z,113.50
2023-02-27T10:07:58.711Z,8.00
2023-02-27T10:13:27.213Z,4.30
2023-02-27T10:19:00.136Z,10.10
2023-02-27T10:31:35.700Z,6.50
2023-02-27T10:37:07.540Z,3.50
2023-02-27T10:49:25.054Z,5.50
2023-02-27T10:55:30.874Z,12.30
2023-02-27T11:00:50.987Z,13.30
2023-02-27T11:06:05.176Z,21.20
2023-02-27T11:11:28.116Z,47.10
2023-02-27T11:23:50.738Z,12.20
2023-02-27T11:29:15.395Z,15.90
2023-02-27T11:34:50.105Z,9.40
2023-02-27T11:40:10.706Z,8.60
2023-02-27T11:46:05.021Z,22.70
2023-02-27T11:51:28.718Z,38.40
2023-02-27T11:57:01.316Z,17.00
2023-02-27T12:03:17.895Z,10.20
2023-02-27T12:08:55.591Z,4.90
2023-02-27T12:14:25.560Z,6.40
2023-02-27T12:19:46.305Z,7.50
2023-02-27T12:25:07.392Z,9.60
2023-02-27T12:37:48.117Z,14.50
2023-02-27T12:51:10.780Z,25.00
2023-02-27T13:04:03.590Z,19.30
2023-02-27T13:09:21.961Z,34.00
2023-02-27T13:14:55.178Z,6.90
2023-02-27T13:20:21.410Z,8.40
2023-02-27T13:25:42.363Z,12.50
2023-02-27T13:39:39.386Z,9.10
2023-02-27T13:44:46.065Z,6.80
2023-02-27T13:57:47.414Z,10.10
2023-02-27T14:03:23.077Z,21.00
2023-02-27T14:09:08.872Z,14.00
2023-02-27T14:14:42.294Z,30.00
2023-02-27T14:19:50.886Z,28.00
2023-02-27T14:25:24.952Z,14.40
2023-02-27T14:31:29.305Z,8.10
2023-02-27T14:36:53.967Z,10.70
2023-02-27T14:42:47.161Z,19.20
2023-02-27T14:48:14.369Z,14.20
2023-02-27T14:53:31.553Z,18.80
2023-02-27T14:59:57.084Z,27.00
2023-02-27T15:05:03.789Z,27.10
2023-02-27T15:10:17.560Z,25.50
2023-02-27T15:22:39.905Z,228.00
2023-02-27T15:27:44.072Z,245.90
2023-02-27T15:32:47.791Z,24.60
2023-02-27T15:37:59.703Z,11.30
2023-02-27T15:44:50.834Z,10.90
2023-02-27T15:50:07.282Z,11.20
2023-02-27T16:10:28.444Z,23.90
2023-02-27T16:17:02.041Z,28.20
2023-02-27T16:22:15.706Z,16.90
2023-02-27T16:27:30.477Z,342.60
2023-02-27T16:32:44.434Z,143.00
2023-02-27T16:38:43.302Z,70.00
2023-02-27T16:50:55.279Z,119.40
2023-02-27T16:55:59.130Z,119.90
2023-02-27T17:01:03.406Z,75.50
2023-02-27T17:21:59.291Z,24.60
2023-02-27T17:27:03.052Z,36.20
2023-02-27T17:32:07.360Z,38.70
2023-02-27T17:37:11.363Z,30.70
2023-02-27T17:42:18.813Z,28.50
2023-02-27T17:47:23.292Z,46.90
2023-02-27T17:52:28.000Z,115.60
2023-02-27T17:57:31.747Z,180.50
2023-02-27T18:03:00.757Z,199.40
2023-02-27T18:08:04.415Z,207.70
2023-02-27T18:13:08.430Z,172.70
2023-02-27T18:18:13.471Z,132.20
2023-02-27T18:23:17.406Z,131.20
2023-02-27T18:28:21.277Z,128.50
2023-02-27T18:33:26.381Z,114.20
2023-02-27T18:38:30.343Z,102.40
2023-02-27T18:43:34.442Z,88.00
2023-02-27T18:48:39.687Z,85.50
2023-02-27T19:08:30.863Z,43.70
2023-02-27T19:20:52.475Z,86.20
2023-02-27T19:26:53.536Z,109.80
2023-02-27T19:40:28.246Z,153.40
2023-02-27T19:45:33.363Z,105.40
2023-02-27T19:51:28.652Z,118.70
2023-02-27T19:56:32.465Z,138.80
2023-02-27T20:02:59.078Z,101.70
2023-02-27T20:08:02.996Z,116.30
2023-02-27T20:13:08.473Z,176.80
2023-02-27T20:18:12.338Z,252.40
2023-02-27T20:23:18.673Z,247.90
2023-02-27T20:28:23.795Z,239.70
2023-02-27T20:33:27.507Z,473.20
2023-02-27T20:38:33.645Z,466.10
2023-02-27T20:43:39.084Z,450.60
2023-02-27T20:48:44.125Z,317.90
2023-02-27T20:53:52.238Z,315.40
2023-02-27T20:58:56.071Z,337.50
2023-02-27T21:04:03.309Z,305.60
2023-02-27T21:16:26.046Z,244.30
2023-02-27T21:21:33.865Z,361.40
2023-02-27T21:27:27.705Z,383.10
2023-02-27T21:32:31.273Z,333.30
2023-02-27T21:37:34.999Z,287.00
2023-02-27T21:42:38.649Z,200.60
2023-02-27T21:47:48.813Z,191.70
2023-02-27T21:52:52.428Z,149.90
2023-02-27T21:57:56.455Z,112.70
2023-02-27T22:03:00.212Z,97.90
2023-02-27T22:08:16.339Z,147.10
2023-02-27T22:13:19.945Z,181.00
2023-02-27T22:18:27.681Z,121.70
2023-02-27T22:23:31.195Z,115.00
2023-02-27T22:28:40.294Z,114.30
2023-02-27T22:33:46.446Z,114.20
2023-02-27T22:38:51.838Z,92.80
2023-02-27T22:43:56.896Z,71.80
2023-02-27T22:49:21.300Z,81.50
2023-02-27T22:54:25.091Z,80.80
2023-02-27T22:59:28.690Z,105.90
2023-02-27T23:04:32.396Z,92.00
2023-02-27T23:09:35.992Z,160.00
2023-02-27T23:14:39.605Z,100.80
2023-02-27T23:19:44.265Z,123.60
2023-02-27T23:24:47.878Z,99.60
2023-02-27T23:29:51.827Z,143.20
2023-02-27T23:34:55.631Z,148.00
2023-02-27T23:39:59.304Z,389.30
2023-02-27T23:45:12.305Z,145.60
2023-02-27T23:50:15.821Z,118.80
2023-02-27T23:55:21.602Z,109.00
